Centerville, Utah
Current Conditions -  °F | °C
As of 5:53 PM on Saturday 25 Oct 2014 (Local Time) from KSLC Reporting Station
Broken Clouds Broken Clouds  
Wind Chill: 24°   Ceiling: 20000
Heat Index: 24°   Visibility: 10mi
Dew Point: -1°   Wind: 15mph
Humidity: 20%   Direction: 180°S
Pressure: 29.9"   Gusts: NA
Location:  40.92°N, 111.87°W
Report Text: KSLC 252353Z 18013KT 10SM SCT140 BKN200 24/M01 A2990 RMK AO2 SLP081 T02391006 10261 20233 58017
Loading
Personal Weather Stations






























Interactive Weather Map
Tropical Storm Tracking
New forecast layout! Learn more

10-Day Weather Forecast

Advertisements
Track Severe Weather on mobile